createdAt,value
2018-08-24T03:39:02.989Z,3
2018-08-24T03:46:03.488Z,7
2018-08-24T03:50:03.728Z,10
2018-08-24T03:52:33.829Z,13
2018-08-24T03:54:33.946Z,17
2018-08-24T03:55:34.029Z,20
2018-08-24T03:56:04.037Z,23
2018-08-24T03:57:04.139Z,27
2018-08-24T03:59:04.253Z,30
2018-08-24T03:59:34.304Z,33
2018-08-24T04:00:04.315Z,37
2018-08-24T04:00:34.578Z,40
2018-08-24T04:01:04.368Z,47
2018-08-24T04:01:34.415Z,50
2018-08-24T04:02:04.460Z,57
2018-08-24T04:02:34.452Z,63
2018-08-24T04:03:04.497Z,70
2018-08-24T04:03:34.530Z,73
2018-08-24T04:04:04.568Z,80
2018-08-24T04:04:34.602Z,90
2018-08-24T04:05:04.641Z,100
2018-08-24T04:05:34.735Z,103
2018-08-24T04:06:04.686Z,110
2018-08-24T04:06:34.759Z,117
2018-08-24T04:07:04.801Z,127
2018-08-24T04:07:34.818Z,133
2018-08-24T04:08:04.815Z,147
2018-08-24T04:08:34.833Z,157
2018-08-24T04:09:04.880Z,160
2018-08-24T04:09:34.918Z,173
2018-08-24T04:10:04.937Z,190
2018-08-24T04:10:35.034Z,203
2018-08-24T04:11:05.002Z,213
2018-08-24T04:11:35.035Z,223
2018-08-24T04:12:05.068Z,230
2018-08-24T04:12:35.091Z,240
2018-08-24T04:13:05.125Z,247
2018-08-24T04:13:35.205Z,260
2018-08-24T04:14:05.204Z,273
2018-08-24T04:14:35.216Z,283
2018-08-24T04:15:05.253Z,293
2018-08-24T04:15:35.778Z,310
2018-08-24T04:16:05.286Z,327
2018-08-24T04:16:35.361Z,347
2018-08-24T04:17:05.367Z,363
2018-08-24T04:17:35.403Z,383
2018-08-24T04:18:05.391Z,403
2018-08-24T04:18:35.473Z,427
2018-08-24T04:19:05.583Z,443
2018-08-24T04:19:35.612Z,463
2018-08-24T04:20:05.580Z,487
2018-08-24T04:20:35.629Z,510
2018-08-24T04:21:05.625Z,533
2018-08-24T04:21:35.631Z,557
2018-08-24T04:22:05.696Z,580
2018-08-24T04:22:35.673Z,607
2018-08-24T04:23:05.722Z,637
2018-08-24T04:23:35.745Z,667
2018-08-24T04:24:05.761Z,703
2018-08-24T04:24:35.815Z,747
2018-08-24T04:25:05.864Z,787
2018-08-24T04:25:36.056Z,827
2018-08-24T04:26:05.987Z,853
2018-08-24T04:26:35.933Z,873
2018-08-24T04:27:05.947Z,893
2018-08-24T04:27:35.982Z,910
2018-08-24T04:28:06.023Z,930
2018-08-24T04:28:36.043Z,957
2018-08-24T04:29:06.068Z,983
2018-08-24T04:29:36.112Z,1017
2018-08-24T04:30:06.162Z,1047
2018-08-24T04:30:36.220Z,1073
2018-08-24T04:31:06.418Z,1103
2018-08-24T04:31:36.239Z,1137
2018-08-24T04:32:06.290Z,1167
2018-08-24T04:32:36.345Z,1203
2018-08-24T04:33:06.358Z,1227
2018-08-24T04:33:36.466Z,1263
2018-08-24T04:34:06.418Z,1310
2018-08-24T04:34:36.440Z,1373
2018-08-24T04:35:06.639Z,1450
2018-08-24T04:35:36.547Z,1520
2018-08-24T04:36:06.538Z,1583
2018-08-24T04:36:36.597Z,1647
2018-08-24T04:37:06.563Z,1710
2018-08-24T04:37:36.619Z,1780
2018-08-24T04:38:06.629Z,1847
2018-08-24T04:38:36.697Z,1913
2018-08-24T04:39:06.718Z,1977
2018-08-24T04:39:36.751Z,2043
2018-08-24T04:40:06.830Z,2113
2018-08-24T04:40:37.039Z,2173
2018-08-24T04:41:06.813Z,2247
2018-08-24T04:41:36.861Z,2343
2018-08-24T04:42:06.873Z,2440
2018-08-24T04:42:36.909Z,2493
2018-08-24T04:43:06.934Z,2537
2018-08-24T04:43:36.976Z,2617
2018-08-24T04:44:07.003Z,2740
2018-08-24T04:44:37.050Z,2817
2018-08-24T04:45:07.097Z,2807
2018-08-24T04:45:37.217Z,2790
2018-08-24T04:46:07.169Z,2807
2018-08-24T04:46:37.152Z,2580
2018-08-24T04:47:07.230Z,2403
2018-08-24T04:47:37.216Z,2480
2018-08-24T04:48:07.264Z,2590
2018-08-24T04:48:37.288Z,2423
2018-08-24T04:49:07.338Z,2363
2018-08-24T04:49:37.361Z,2460
2018-08-24T04:50:07.422Z,2673
2018-08-24T04:50:37.693Z,2863
2018-08-24T04:51:07.544Z,3043
2018-08-24T04:51:37.503Z,3170
2018-08-24T04:52:07.563Z,3080
2018-08-24T04:52:37.564Z,2993
2018-08-24T04:53:07.596Z,3010
2018-08-24T04:53:37.615Z,3070
2018-08-24T04:54:07.639Z,3123
2018-08-24T04:54:37.675Z,3050
2018-08-24T04:55:07.736Z,3047
2018-08-24T04:55:37.760Z,3190
2018-08-24T04:56:07.770Z,3350
2018-08-24T04:56:37.859Z,3467
2018-08-24T04:57:07.887Z,3597
2018-08-24T04:57:37.883Z,3773
2018-08-24T04:58:07.952Z,3963
2018-08-24T04:58:37.913Z,4140
2018-08-24T04:59:07.951Z,4280
2018-08-24T04:59:37.967Z,4363
2018-08-24T05:00:08.047Z,4423
2018-08-24T05:00:38.120Z,4457
2018-08-24T05:01:08.042Z,4423
2018-08-24T05:01:38.128Z,4367
2018-08-24T05:02:08.135Z,4377
2018-08-24T05:02:38.141Z,4457
2018-08-24T05:03:08.188Z,4603
2018-08-24T05:03:38.245Z,4717
2018-08-24T05:04:08.253Z,4787
2018-08-24T05:04:38.307Z,4943
2018-08-24T05:05:08.320Z,5150
2018-08-24T05:05:38.677Z,5360
2018-08-24T05:06:08.389Z,5513
2018-08-24T05:06:38.460Z,5507
2018-08-24T05:07:08.438Z,5520
2018-08-24T05:07:38.466Z,5527
2018-08-24T05:08:08.502Z,5530
2018-08-24T05:08:38.535Z,5593
2018-08-24T05:09:08.544Z,5713
2018-08-24T05:09:38.634Z,5820
2018-08-24T05:10:08.598Z,5910
2018-08-24T05:10:38.678Z,5993
2018-08-24T05:11:08.657Z,6263
2018-08-24T05:11:38.696Z,6520
2018-08-24T05:12:08.814Z,6460
2018-08-24T05:12:38.764Z,6617
2018-08-24T05:13:08.780Z,6613
2018-08-24T05:13:38.827Z,5920
2018-08-24T05:14:08.846Z,5470
2018-08-24T05:14:38.883Z,5127
2018-08-24T05:15:08.910Z,5253
2018-08-24T05:15:38.989Z,5847
2018-08-24T05:16:08.964Z,5987
2018-08-24T05:16:39.031Z,6013
2018-08-24T05:17:09.049Z,5520
2018-08-24T05:17:39.066Z,5680
2018-08-24T05:18:09.092Z,5663
2018-08-24T05:18:39.127Z,5783
2018-08-24T05:19:09.199Z,5990
2018-08-24T05:19:39.202Z,6233
2018-08-24T05:20:09.213Z,5890
2018-08-24T05:20:39.379Z,5393
2018-08-24T05:21:09.357Z,5167
2018-08-24T05:21:39.357Z,4943
2018-08-24T05:22:09.394Z,4997
2018-08-24T05:22:39.441Z,5073
2018-08-24T05:23:09.428Z,5120
2018-08-24T05:23:39.467Z,5470
2018-08-24T05:24:09.502Z,5820
2018-08-24T05:24:39.533Z,5743
2018-08-24T05:25:09.534Z,5337
2018-08-24T05:25:39.605Z,5530
2018-08-24T05:26:09.634Z,5733
2018-08-24T05:26:39.627Z,5647
2018-08-24T05:27:09.686Z,4913
2018-08-24T05:27:39.677Z,4017
2018-08-24T05:28:09.804Z,4097
2018-08-24T05:28:39.750Z,4450
2018-08-24T05:29:09.781Z,4097
2018-08-24T05:29:39.817Z,4437
2018-08-24T05:30:09.834Z,4707
2018-08-24T05:30:39.918Z,4227
2018-08-24T05:31:09.990Z,3383
2018-08-24T05:31:39.925Z,2993
2018-08-24T05:32:09.964Z,3043
2018-08-24T05:32:40.018Z,2927
2018-08-24T05:33:10.030Z,2750
2018-08-24T05:33:40.053Z,2737
2018-08-24T05:34:10.089Z,2820
2018-08-24T05:34:40.164Z,2740
2018-08-24T05:35:10.138Z,2797
2018-08-24T05:35:40.276Z,3087
2018-08-24T05:36:10.468Z,3110
2018-08-24T05:36:40.276Z,2987
2018-08-24T05:37:10.368Z,2940
2018-08-24T05:37:40.326Z,3007
2018-08-24T05:38:10.359Z,3030
2018-08-24T05:38:40.349Z,2847
2018-08-24T05:39:10.415Z,2710
2018-08-24T05:39:40.413Z,2590
2018-08-24T05:40:10.492Z,2407
2018-08-24T05:40:40.507Z,2273
2018-08-24T05:41:10.782Z,2197
2018-08-24T05:41:40.705Z,2163
2018-08-24T05:42:40.603Z,2223
2018-08-24T05:43:10.664Z,2303
2018-08-24T05:43:40.708Z,2293
2018-08-24T05:44:10.734Z,2327
2018-08-24T05:44:40.717Z,2400
2018-08-24T05:45:10.802Z,2410
2018-08-24T05:45:40.785Z,2443
2018-08-24T05:46:10.873Z,2407
2018-08-24T05:46:40.843Z,2263
2018-08-24T05:47:10.916Z,2093
2018-08-24T05:47:40.908Z,1967
2018-08-24T05:48:10.977Z,1873
2018-08-24T05:48:41.050Z,1800
2018-08-24T05:49:11.018Z,1733
2018-08-24T05:49:41.075Z,1693
2018-08-24T05:50:11.094Z,1627
2018-08-24T05:50:41.175Z,1637
2018-08-24T05:51:11.408Z,1627
2018-08-24T05:51:41.171Z,1553
2018-08-24T05:52:11.181Z,1523
2018-08-24T05:52:41.243Z,1560
2018-08-24T05:53:11.290Z,1603
2018-08-24T05:53:41.361Z,1723
2018-08-24T05:54:11.342Z,1720
2018-08-24T05:54:41.382Z,1587
2018-08-24T05:55:11.408Z,1343
2018-08-24T05:55:41.488Z,1033
2018-08-24T05:56:11.529Z,853
2018-08-24T05:56:41.499Z,793
2018-08-24T05:57:11.535Z,820
2018-08-24T05:57:41.634Z,947
2018-08-24T05:58:11.557Z,1077
2018-08-24T05:58:41.620Z,1223
2018-08-24T05:59:11.611Z,1283
2018-08-24T05:59:41.666Z,1390
2018-08-24T06:00:11.747Z,1577
2018-08-24T06:00:41.710Z,1787
2018-08-24T06:01:12.001Z,1883
2018-08-24T06:02:11.798Z,1903
2018-08-24T06:02:41.839Z,1937
2018-08-24T06:03:11.872Z,1970
2018-08-24T06:03:41.952Z,2033
2018-08-24T06:04:11.925Z,2133
2018-08-24T06:04:41.962Z,2327
2018-08-24T06:05:12.022Z,2640
2018-08-24T06:05:42.116Z,3003
2018-08-24T06:06:12.125Z,3283
2018-08-24T06:06:42.077Z,3337
2018-08-24T06:07:12.117Z,3280
2018-08-24T06:07:42.208Z,3253
2018-08-24T06:08:12.166Z,3280
2018-08-24T06:08:42.253Z,3330
2018-08-24T06:09:12.243Z,3413
2018-08-24T06:09:42.292Z,3550
2018-08-24T06:10:12.320Z,3440
2018-08-24T06:10:42.330Z,3330
2018-08-24T06:11:12.496Z,3563
2018-08-24T06:11:42.429Z,3897
2018-08-24T06:12:12.492Z,3983
2018-08-24T06:12:42.686Z,3560
2018-08-24T06:13:12.500Z,3520
2018-08-24T06:13:42.507Z,3133
2018-08-24T06:14:12.679Z,3163
2018-08-24T06:14:42.568Z,2883
2018-08-24T06:15:12.626Z,2727
2018-08-24T06:15:42.687Z,3393
2018-08-24T06:16:12.730Z,4310
2018-08-24T06:16:42.692Z,5217
2018-08-24T06:17:12.755Z,5767
2018-08-24T06:17:42.771Z,6040
2018-08-24T06:18:12.786Z,6217
2018-08-24T06:18:42.838Z,6127
2018-08-24T06:19:12.849Z,5777
2018-08-24T06:19:42.891Z,5230
2018-08-24T06:20:12.975Z,4690
2018-08-24T06:20:42.951Z,4220
2018-08-24T06:21:13.022Z,3870
2018-08-24T06:21:42.999Z,3650
2018-08-24T06:22:13.060Z,3663
2018-08-24T06:22:43.091Z,3840
2018-08-24T06:23:13.095Z,4143
2018-08-24T06:23:43.172Z,4450
2018-08-24T06:24:13.160Z,4647
2018-08-24T06:24:43.192Z,4763
2018-08-24T06:25:13.251Z,4780
2018-08-24T06:25:43.256Z,4653
2018-08-24T06:26:13.565Z,4523
2018-08-24T06:26:43.324Z,4447
2018-08-24T06:27:13.385Z,4423
2018-08-24T06:27:43.406Z,4410
2018-08-24T06:28:43.464Z,4480
2018-08-24T06:29:13.487Z,4627
2018-08-24T06:29:43.541Z,4827
2018-08-24T06:30:13.554Z,5063
2018-08-24T06:30:43.587Z,5237
2018-08-24T06:31:13.656Z,5140
2018-08-24T06:31:43.664Z,4837
2018-08-24T06:32:13.692Z,4507
2018-08-24T06:32:43.731Z,4290
2018-08-24T06:33:13.709Z,4230
2018-08-24T06:33:43.777Z,4203
2018-08-24T06:34:13.805Z,4210
2018-08-24T06:34:43.837Z,4097
2018-08-24T06:35:13.887Z,4000
2018-08-24T06:35:43.928Z,4017
2018-08-24T06:36:14.195Z,4183
2018-08-24T06:36:43.985Z,4487
2018-08-24T06:37:14.010Z,4947
2018-08-24T06:37:44.057Z,5473
2018-08-24T06:38:14.053Z,6160
2018-08-24T06:38:44.097Z,6810
2018-08-24T06:39:14.133Z,7460
2018-08-24T06:39:44.162Z,8100
2018-08-24T06:40:14.196Z,8673
2018-08-24T06:40:44.223Z,9140
2018-08-24T06:41:14.270Z,9637
2018-08-24T06:41:44.331Z,10057
2018-08-24T06:42:14.351Z,10593
2018-08-24T06:42:44.320Z,11213
2018-08-24T06:43:14.355Z,12050
2018-08-24T06:43:44.434Z,12967
2018-08-24T06:44:14.468Z,13600
2018-08-24T06:44:44.469Z,13683
2018-08-24T06:45:14.471Z,13297
2018-08-24T06:45:44.481Z,12753
2018-08-24T06:46:14.589Z,12380
2018-08-24T06:46:44.607Z,12353
2018-08-24T06:47:14.612Z,12477
2018-08-24T06:47:44.726Z,12690
2018-08-24T06:48:14.669Z,12693
2018-08-24T06:48:44.670Z,12573
2018-08-24T06:49:14.707Z,12477
2018-08-24T06:49:44.759Z,12423
2018-08-24T06:50:14.753Z,12557
2018-08-24T06:50:44.796Z,12860
2018-08-24T06:51:14.895Z,13277
2018-08-24T06:51:44.875Z,13573
2018-08-24T06:52:14.882Z,13957
2018-08-24T06:52:44.920Z,14350
2018-08-24T06:53:15.047Z,14967
2018-08-24T06:53:45.050Z,15683
2018-08-24T06:54:15.053Z,16150
2018-08-24T06:54:45.048Z,16540
2018-08-24T06:55:15.062Z,17067
2018-08-24T06:55:45.099Z,17973
2018-08-24T06:56:15.253Z,19337
2018-08-24T06:56:45.166Z,20267
2018-08-24T06:57:15.190Z,22303
2018-08-24T06:57:45.245Z,23797
2018-08-24T06:58:15.245Z,24953
2018-08-24T06:58:45.329Z,25427
2018-08-24T06:59:15.378Z,25077
2018-08-24T06:59:45.404Z,23383
2018-08-24T07:00:15.427Z,20657
2018-08-24T07:00:45.430Z,20037
2018-08-24T07:01:15.501Z,19890
2018-08-24T07:01:45.518Z,20517
2018-08-24T07:02:15.536Z,21147
2018-08-24T07:02:45.597Z,20997
2018-08-24T07:03:15.563Z,20530
2018-08-24T07:03:45.598Z,20073
2018-08-24T07:04:15.639Z,19763
2018-08-24T07:04:45.653Z,19487
2018-08-24T07:05:15.683Z,19503
2018-08-24T07:05:45.793Z,19360
2018-08-24T07:06:15.780Z,18983
2018-08-24T07:06:45.775Z,18817
2018-08-24T07:07:15.825Z,18560
2018-08-24T07:07:45.865Z,18213
2018-08-24T07:08:15.864Z,17633
2018-08-24T07:08:45.898Z,17533
2018-08-24T07:09:15.929Z,16813
2018-08-24T07:09:45.955Z,16203
2018-08-24T07:10:15.988Z,16133
2018-08-24T07:10:46.025Z,17303
2018-08-24T07:11:16.167Z,20857
2018-08-24T07:11:46.084Z,22030
2018-08-24T07:12:16.112Z,22467
2018-08-24T07:12:46.171Z,22847
2018-08-24T07:13:16.180Z,22810
2018-08-24T07:13:46.219Z,22403
2018-08-24T07:14:16.247Z,22210
2018-08-24T07:14:46.349Z,22077
2018-08-24T07:15:16.317Z,21747
2018-08-24T07:15:46.364Z,21053
2018-08-24T07:16:16.421Z,20167
2018-08-24T07:16:46.463Z,17440
2018-08-24T07:17:16.487Z,19963
2018-08-24T07:17:46.718Z,20290
2018-08-24T07:18:16.535Z,19740
2018-08-24T07:18:46.553Z,19863
2018-08-24T07:19:16.636Z,20663
2018-08-24T07:19:46.665Z,22357
2018-08-24T07:20:16.625Z,24150
2018-08-24T07:20:46.681Z,25387
2018-08-24T07:21:16.717Z,25730
2018-08-24T07:21:46.734Z,25657
2018-08-24T07:22:16.765Z,25450
2018-08-24T07:22:46.871Z,25220
2018-08-24T07:23:16.820Z,24887
2018-08-24T07:23:46.877Z,24987
2018-08-24T07:24:16.891Z,25713
2018-08-24T07:24:46.911Z,26657
2018-08-24T07:25:17.045Z,27027
2018-08-24T07:25:47.028Z,26597
2018-08-24T07:26:17.040Z,25807
2018-08-24T07:26:47.057Z,25197
2018-08-24T07:27:17.075Z,24407
2018-08-24T07:27:47.173Z,23997
2018-08-24T07:28:17.139Z,23987
2018-08-24T07:28:47.133Z,24120
2018-08-24T07:29:17.197Z,24283
2018-08-24T07:29:47.230Z,24110
2018-08-24T07:30:17.262Z,23267
2018-08-24T07:30:47.299Z,21730
2018-08-24T07:31:17.322Z,20617
2018-08-24T07:31:47.367Z,20440
2018-08-24T07:32:17.390Z,20367
2018-08-24T07:32:47.485Z,20233
2018-08-24T07:33:17.442Z,21383
2018-08-24T07:33:47.457Z,21530
2018-08-24T07:34:17.515Z,21090
2018-08-24T07:34:47.560Z,20687
2018-08-24T07:35:17.545Z,20817
2018-08-24T07:35:47.631Z,21260
2018-08-24T07:36:17.598Z,21100
2018-08-24T07:36:47.633Z,20670
2018-08-24T07:37:17.717Z,20813
2018-08-24T07:37:47.939Z,21003
2018-08-24T07:38:17.767Z,20400
2018-08-24T07:38:47.747Z,21453
2018-08-24T07:39:17.790Z,22593
2018-08-24T07:39:47.820Z,22963
2018-08-24T07:40:17.849Z,23280
2018-08-24T07:40:47.875Z,23767
2018-08-24T07:41:17.910Z,25043
2018-08-24T07:41:47.969Z,26337
2018-08-24T07:42:17.999Z,27100
2018-08-24T07:42:48.039Z,27760
2018-08-24T07:43:18.027Z,29143
2018-08-24T07:43:48.072Z,30887
2018-08-24T07:44:18.088Z,32787
2018-08-24T07:44:48.216Z,35440
2018-08-24T07:45:18.197Z,37940
2018-08-24T07:45:48.181Z,39777
2018-08-24T07:46:18.272Z,42087
2018-08-24T07:46:48.250Z,43243
2018-08-24T07:47:18.329Z,43133
2018-08-24T07:47:48.558Z,44390
2018-08-24T07:48:18.389Z,44940
2018-08-24T07:48:48.411Z,43393
2018-08-24T07:49:18.466Z,44133
2018-08-24T07:49:48.458Z,46153
2018-08-24T07:50:18.526Z,46867
2018-08-24T07:50:48.620Z,48383
2018-08-24T07:51:18.535Z,49483
2018-08-24T07:51:48.595Z,48827
2018-08-24T07:52:18.622Z,48163
2018-08-24T07:52:48.880Z,43887
2018-08-24T07:53:18.675Z,38930
2018-08-24T07:53:48.675Z,36077
2018-08-24T07:54:18.742Z,34577
2018-08-24T07:54:48.744Z,36750
2018-08-24T07:55:18.813Z,37800
2018-08-24T07:55:48.845Z,32443
2018-08-24T07:56:18.874Z,27083
2018-08-24T07:56:48.867Z,24750
2018-08-24T07:57:18.889Z,22180
2018-08-24T07:57:49.026Z,20997
2018-08-24T07:58:18.952Z,23437
2018-08-24T07:58:48.983Z,27450
2018-08-24T07:59:19.021Z,32380
2018-08-24T07:59:49.043Z,34843
2018-08-24T08:00:19.076Z,32913
2018-08-24T08:00:49.129Z,26520
2018-08-24T08:01:19.135Z,22153
2018-08-24T08:01:49.214Z,20833
2018-08-24T08:02:19.233Z,20343
2018-08-24T08:02:49.251Z,21363
2018-08-24T08:03:19.310Z,26167
2018-08-24T08:03:49.361Z,30607
2018-08-24T08:04:19.345Z,34013
2018-08-24T08:04:49.390Z,36610
2018-08-24T08:05:19.499Z,37233
2018-08-24T08:05:49.483Z,37047
2018-08-24T08:06:19.490Z,36697
2018-08-24T08:06:49.506Z,37130
2018-08-24T08:07:19.550Z,37073
2018-08-24T08:07:49.567Z,37257
2018-08-24T08:08:19.567Z,37560
2018-08-24T08:08:49.651Z,36733
2018-08-24T08:09:19.669Z,36300
2018-08-24T08:09:49.684Z,36077
2018-08-24T08:10:19.939Z,36127
2018-08-24T08:10:50.022Z,36033
2018-08-24T08:11:19.797Z,35960
2018-08-24T08:11:49.826Z,36060
2018-08-24T08:12:19.860Z,36277
2018-08-24T08:12:49.889Z,36317
2018-08-24T08:13:19.909Z,36110
2018-08-24T08:13:49.954Z,35967
2018-08-24T08:14:19.987Z,35997
2018-08-24T08:14:50.019Z,35620
2018-08-24T08:15:20.012Z,35543
2018-08-24T08:15:50.128Z,35030
2018-08-24T08:16:20.141Z,34983
2018-08-24T08:16:50.138Z,34820
2018-08-24T08:17:20.176Z,34613
2018-08-24T08:17:50.201Z,34377
2018-08-24T08:18:20.472Z,34017
2018-08-24T08:18:50.265Z,33273
2018-08-24T08:19:20.305Z,32723
2018-08-24T08:19:50.365Z,32283
2018-08-24T08:20:20.373Z,30933
2018-08-24T08:20:50.629Z,30230
2018-08-24T08:21:20.414Z,29307
2018-08-24T08:21:50.474Z,28417
2018-08-24T08:22:20.436Z,27993
2018-08-24T08:22:50.550Z,28063
2018-08-24T08:23:20.492Z,28183
2018-08-24T08:23:50.547Z,27767
2018-08-24T08:24:20.607Z,28023
2018-08-24T08:24:50.710Z,27997
2018-08-24T08:25:20.615Z,27980
2018-08-24T08:25:50.690Z,28257
2018-08-24T08:26:20.689Z,28810
2018-08-24T08:26:50.708Z,30203
2018-08-24T08:27:20.767Z,31427
2018-08-24T08:27:50.783Z,31640
2018-08-24T08:28:20.805Z,32233
2018-08-24T08:28:50.854Z,33137
2018-08-24T08:29:20.932Z,34377
2018-08-24T08:29:50.900Z,35353
2018-08-24T08:30:20.942Z,36863
2018-08-24T08:30:50.959Z,38647
2018-08-24T08:31:21.030Z,39737
2018-08-24T08:31:51.080Z,41020
2018-08-24T08:32:21.071Z,42283
2018-08-24T08:32:51.129Z,43307
2018-08-24T08:33:21.171Z,42937
2018-08-24T08:33:51.193Z,42017
2018-08-24T08:34:21.192Z,41483
2018-08-24T08:34:51.217Z,40273
2018-08-24T08:35:21.312Z,39903
2018-08-24T08:35:51.332Z,40080
2018-08-24T08:36:21.351Z,39550
2018-08-24T08:36:51.337Z,38603
2018-08-24T08:37:21.416Z,36750
2018-08-24T08:37:51.426Z,34360
2018-08-24T08:38:21.459Z,33360
2018-08-24T08:38:51.513Z,33130
2018-08-24T08:39:21.525Z,32127
2018-08-24T08:39:51.571Z,30340
2018-08-24T08:40:21.553Z,29413
2018-08-24T08:40:51.606Z,29007
2018-08-24T08:41:21.664Z,28923
2018-08-24T08:41:51.731Z,28950
2018-08-24T08:42:21.710Z,28037
2018-08-24T08:42:52.513Z,25410
2018-08-24T08:43:21.723Z,24797
2018-08-24T08:43:51.754Z,25577
2018-08-24T08:44:21.816Z,26107
2018-08-24T08:44:51.845Z,27513
2018-08-24T08:45:21.876Z,29347
2018-08-24T08:45:51.913Z,29920
2018-08-24T08:46:21.963Z,29913
2018-08-24T08:46:51.966Z,30283
2018-08-24T08:47:21.973Z,30180
2018-08-24T08:47:52.015Z,27257
2018-08-24T08:48:22.086Z,23823
2018-08-24T08:48:52.065Z,22167
2018-08-24T08:49:22.148Z,22803
2018-08-24T08:49:52.124Z,24957
2018-08-24T08:50:22.153Z,28020
2018-08-24T08:50:52.267Z,31150
2018-08-24T08:51:22.278Z,34303
2018-08-24T08:51:52.268Z,36373
2018-08-24T08:52:22.318Z,36910
2018-08-24T08:52:52.340Z,36697
2018-08-24T08:53:22.417Z,36320
2018-08-24T08:53:52.377Z,34937
2018-08-24T08:54:22.458Z,33103
2018-08-24T08:54:52.497Z,32467
2018-08-24T08:55:22.480Z,32450
2018-08-24T08:55:52.561Z,32347
2018-08-24T08:56:22.591Z,31780
2018-08-24T08:56:52.625Z,31457
2018-08-24T08:57:22.663Z,31613
2018-08-24T08:57:52.675Z,32503
2018-08-24T08:58:22.655Z,33173
2018-08-24T08:58:52.734Z,33717
2018-08-24T08:59:22.759Z,34290
2018-08-24T08:59:52.832Z,35177
2018-08-24T09:00:22.814Z,35993
2018-08-24T09:00:52.854Z,36113
2018-08-24T09:01:22.962Z,35613
2018-08-24T09:01:52.917Z,35643
2018-08-24T09:02:22.951Z,36433
2018-08-24T09:02:52.961Z,37190
2018-08-24T09:03:22.964Z,38473
2018-08-24T09:03:53.066Z,40063
2018-08-24T09:04:23.075Z,43320
2018-08-24T09:04:53.100Z,43077
2018-08-24T09:05:23.092Z,47873
2018-08-24T09:05:53.199Z,46220
2018-08-24T09:06:23.299Z,51290
2018-08-24T09:06:53.184Z,52693
2018-08-24T09:07:23.313Z,53637
2018-08-24T09:07:53.291Z,54123
2018-08-24T09:08:23.339Z,54573
2018-08-24T09:08:53.387Z,47440
2018-08-24T09:09:23.382Z,54073
2018-08-24T09:09:53.424Z,51230
2018-08-24T09:10:23.435Z,46233
2018-08-24T09:10:53.475Z,45283
2018-08-24T09:11:23.480Z,45420
2018-08-24T09:11:53.504Z,44857
2018-08-24T09:12:23.556Z,45247
2018-08-24T09:12:53.549Z,44817
2018-08-24T09:13:23.609Z,44697
2018-08-24T09:13:53.689Z,45020
2018-08-24T09:14:23.686Z,46237
2018-08-24T09:14:53.683Z,47090
2018-08-24T09:15:23.723Z,47440
2018-08-24T09:15:53.751Z,48183
2018-08-24T09:16:23.925Z,49530
2018-08-24T09:16:53.850Z,48913
2018-08-24T09:17:23.828Z,49080
2018-08-24T09:17:53.901Z,50220
2018-08-24T09:18:23.909Z,53073
2018-08-24T09:18:53.921Z,58940
2018-08-24T09:19:23.946Z,60240
2018-08-24T09:19:54.004Z,59887
2018-08-24T09:20:24.014Z,64987
2018-08-24T09:20:54.049Z,66097
2018-08-24T09:21:24.076Z,64770
2018-08-24T09:21:54.171Z,67443
2018-08-24T09:22:24.147Z,65583
2018-08-24T09:22:54.201Z,52810
2018-08-24T09:23:24.210Z,51570
2018-08-24T09:23:54.247Z,54720
2018-08-24T09:24:24.303Z,48397
2018-08-24T09:24:54.323Z,47427
2018-08-24T09:25:24.408Z,46940
2018-08-24T09:25:54.405Z,47183
2018-08-24T09:26:24.431Z,46360
2018-08-24T09:26:58.961Z,45687
2018-08-24T09:27:24.501Z,44833
2018-08-24T09:27:54.492Z,43907
2018-08-24T09:28:24.560Z,43160
2018-08-24T09:28:54.600Z,42843
2018-08-24T09:29:24.582Z,42777
2018-08-24T09:29:54.597Z,42433
2018-08-24T09:30:24.719Z,40840
2018-08-24T09:30:54.688Z,38403
2018-08-24T09:31:24.694Z,35697
2018-08-24T09:31:54.788Z,33347
2018-08-24T09:32:24.822Z,31617
2018-08-24T09:32:54.869Z,30417
2018-08-24T09:33:24.809Z,29083
2018-08-24T09:33:54.848Z,28440
2018-08-24T09:34:24.895Z,27840
2018-08-24T09:34:54.902Z,27700
2018-08-24T09:35:24.935Z,28200
2018-08-24T09:35:54.970Z,29583
2018-08-24T09:36:25.124Z,31617
2018-08-24T09:36:55.039Z,33867
2018-08-24T09:37:25.059Z,35987
2018-08-24T09:37:55.229Z,37850
2018-08-24T09:38:25.134Z,39503
2018-08-24T09:38:55.186Z,40453
2018-08-24T09:39:25.207Z,41000
2018-08-24T09:39:55.250Z,41070
2018-08-24T09:40:25.285Z,41177
2018-08-24T09:40:55.313Z,41843
2018-08-24T09:41:25.334Z,42920
2018-08-24T09:41:55.334Z,44683
2018-08-24T09:42:25.393Z,46093
2018-08-24T09:42:55.528Z,47727
2018-08-24T09:43:25.469Z,49507
2018-08-24T09:43:55.515Z,50760
2018-08-24T09:44:25.524Z,51590
2018-08-24T09:44:55.570Z,51453
2018-08-24T09:45:25.590Z,51530
2018-08-24T09:45:55.596Z,50987
2018-08-24T09:46:25.648Z,49937
2018-08-24T09:46:55.688Z,48640
2018-08-24T09:47:25.708Z,47197
2018-08-24T09:47:55.781Z,45737
2018-08-24T09:48:25.774Z,44757
2018-08-24T09:48:55.898Z,43497
2018-08-24T09:49:25.851Z,42063
2018-08-24T09:49:55.893Z,40967
2018-08-24T09:50:25.851Z,39330
2018-08-24T09:50:55.964Z,37387
2018-08-24T09:51:25.960Z,35773
2018-08-24T09:51:55.993Z,34403
2018-08-24T09:52:26.070Z,33647
2018-08-24T09:52:56.046Z,32807
2018-08-24T09:53:26.093Z,31740
2018-08-24T09:53:56.180Z,30377
2018-08-24T09:54:26.146Z,28617
2018-08-24T09:54:56.177Z,26993
2018-08-24T09:55:26.213Z,25750
2018-08-24T09:55:56.248Z,24823
2018-08-24T09:56:26.305Z,24007
2018-08-24T09:56:56.357Z,23133
2018-08-24T09:57:26.370Z,22337
2018-08-24T09:57:56.368Z,21457
2018-08-24T09:58:26.372Z,20823
2018-08-24T09:58:56.472Z,20227
2018-08-24T09:59:26.411Z,19547
2018-08-24T09:59:56.465Z,18807
2018-08-24T10:00:26.497Z,18153
2018-08-24T10:00:56.548Z,17757
2018-08-24T10:01:26.544Z,17620
2018-08-24T10:01:56.574Z,17783
2018-08-24T10:02:26.688Z,17973
2018-08-24T10:02:56.677Z,18350
2018-08-24T10:03:26.678Z,19077
2018-08-24T10:03:56.780Z,20350
2018-08-24T10:04:26.731Z,21960
2018-08-24T10:04:56.749Z,23777
2018-08-24T10:05:26.803Z,25700
2018-08-24T10:05:56.815Z,27347
2018-08-24T10:06:26.887Z,29027
2018-08-24T10:06:56.882Z,30283
2018-08-24T10:07:26.905Z,31173
2018-08-24T10:07:56.938Z,31823
2018-08-24T10:08:26.969Z,32213
2018-08-24T10:08:57.076Z,32190
2018-08-24T10:09:27.034Z,31990
2018-08-24T10:09:57.214Z,32157
2018-08-24T10:10:27.100Z,32827
2018-08-24T10:10:57.115Z,33773
2018-08-24T10:11:27.225Z,34560
2018-08-24T10:11:57.187Z,35740
2018-08-24T10:12:27.240Z,36603
2018-08-24T10:12:57.260Z,37623
2018-08-24T10:13:27.424Z,38680
2018-08-24T10:13:57.437Z,39553
2018-08-24T10:14:27.333Z,40373
2018-08-24T10:14:57.419Z,41180
2018-08-24T10:15:27.475Z,41340
2018-08-24T10:15:57.476Z,40693
2018-08-24T10:16:27.491Z,40113
2018-08-24T10:16:57.551Z,39023
2018-08-24T10:17:27.593Z,38467
2018-08-24T10:17:57.572Z,38333
2018-08-24T10:18:27.609Z,38403
2018-08-24T10:18:57.664Z,38557
2018-08-24T10:19:27.681Z,38783
2018-08-24T10:19:57.707Z,39253
2018-08-24T10:20:27.746Z,39823
2018-08-24T10:20:57.737Z,41077
2018-08-24T10:21:27.768Z,41693
2018-08-24T10:21:57.811Z,43513
2018-08-24T10:22:27.860Z,43423
2018-08-24T10:22:57.922Z,42863
2018-08-24T10:23:27.911Z,43307
2018-08-24T10:23:57.985Z,43813
2018-08-24T10:24:27.957Z,44583
2018-08-24T10:24:57.986Z,45503
2018-08-24T10:25:28.056Z,46520
2018-08-24T10:25:58.046Z,47170
2018-08-24T10:26:28.079Z,46993
2018-08-24T10:26:58.161Z,47440
2018-08-24T10:27:28.152Z,47220
2018-08-24T10:27:58.226Z,46573
2018-08-24T10:28:28.211Z,46370
2018-08-24T10:28:58.334Z,46160
2018-08-24T10:29:28.416Z,46133
2018-08-24T10:29:58.315Z,46690